Aviation Digital Data Service (ADDS)

Output produced by METARs form (1715 UTC 29 May 2016)
found at http://aviationweather.gov/adds/metars/
 
KAEX 291120Z 2912/3012 VRB03KT P6SM SCT003 BKN250 
     TEMPO 2912/2914 1/4SM FG OVC003 
     FM291600 06005KT P6SM SCT045